F226 LFPZ-LFPZ
Flight info
| Callsign | F226 |
|---|---|
| Flight time | 0h 5m |
| Altitude | 5000 |
| Route | 484917N0020203E DCT 485049N0020656E DCT 484837N0020942E |
| Aircraft | P06T/L-SBDGRY/S |
Departure
| Time | 2026-05-07 18:26 |
|---|---|
| Airport | Saint-Cyr-l'École Airport (LFPZ) |
Arrival
| Time | 2026-05-07 18:32 |
|---|---|
| Airport | Saint-Cyr-l'École Airport (LFPZ) |
| Time | Latitude | Longitude | Altitude | Speed | Heading |
|---|---|---|---|---|---|
| 2026-05-07 18:19 | 48.81103 | 2.06721 | 365 ft | 0 kts | 130° |
| 2026-05-07 18:23 | 48.81095 | 2.06739 | 376 ft | 9 kts | 110° |
| 2026-05-07 18:24 | 48.81099 | 2.06843 | 376 ft | 18 kts | 120° |
| 2026-05-07 18:24 | 48.81020 | 2.07048 | 376 ft | 25 kts | 126° |
| 2026-05-07 18:24 | 48.80909 | 2.07276 | 376 ft | 27 kts | 126° |
| 2026-05-07 18:24 | 48.80936 | 2.07341 | 376 ft | 14 kts | 10° |
| 2026-05-07 18:25 | 48.81031 | 2.07353 | 375 ft | 12 kts | 316° |
| 2026-05-07 18:25 | 48.81071 | 2.07219 | 376 ft | 16 kts | 293° |
| 2026-05-07 18:25 | 48.81173 | 2.06847 | 379 ft | 72 kts | 290° |
| 2026-05-07 18:25 | 48.81364 | 2.05963 | 624 ft | 91 kts | 286° |
| 2026-05-07 18:26 | 48.81551 | 2.05049 | 951 ft | 97 kts | 303° |
| 2026-05-07 18:26 | 48.82163 | 2.04692 | 1200 ft | 100 kts | 24° |
| 2026-05-07 18:26 | 48.82748 | 2.05177 | 1624 ft | 95 kts | 33° |
| 2026-05-07 18:26 | 48.83058 | 2.06029 | 1893 ft | 108 kts | 90° |
| 2026-05-07 18:27 | 48.82753 | 2.07096 | 1843 ft | 111 kts | 118° |
| 2026-05-07 18:27 | 48.82247 | 2.07867 | 1549 ft | 103 kts | 146° |
| 2026-05-07 18:27 | 48.81620 | 2.08383 | 1216 ft | 99 kts | 149° |
| 2026-05-07 18:27 | 48.81061 | 2.08901 | 953 ft | 87 kts | 133° |
| 2026-05-07 18:28 | 48.80707 | 2.09575 | 790 ft | 80 kts | 138° |
| 2026-05-07 18:28 | 48.80180 | 2.09372 | 787 ft | 103 kts | 243° |
| 2026-05-07 18:28 | 48.80393 | 2.08366 | 678 ft | 103 kts | 322° |
| 2026-05-07 18:28 | 48.80895 | 2.07759 | 481 ft | 80 kts | 309° |
| 2026-05-07 18:29 | 48.81111 | 2.07053 | 377 ft | 66 kts | 298° |
| 2026-05-07 18:29 | 48.81283 | 2.06322 | 475 ft | 87 kts | 294° |
| 2026-05-07 18:29 | 48.81452 | 2.05441 | 784 ft | 92 kts | 261° |
| 2026-05-07 18:29 | 48.80979 | 2.04737 | 995 ft | 107 kts | 198° |
| 2026-05-07 18:30 | 48.80282 | 2.04849 | 1216 ft | 111 kts | 140° |
| 2026-05-07 18:30 | 48.79899 | 2.05901 | 1272 ft | 119 kts | 111° |
| 2026-05-07 18:30 | 48.79634 | 2.07036 | 1294 ft | 114 kts | 106° |
| 2026-05-07 18:30 | 48.79570 | 2.08210 | 1112 ft | 108 kts | 73° |
| 2026-05-07 18:31 | 48.80003 | 2.09025 | 915 ft | 92 kts | 26° |
| 2026-05-07 18:31 | 48.80555 | 2.08817 | 777 ft | 92 kts | 320° |
| 2026-05-07 18:31 | 48.80855 | 2.07959 | 540 ft | 92 kts | 295° |
| 2026-05-07 18:31 | 48.81098 | 2.07099 | 389 ft | 83 kts | 294° |
| 2026-05-07 18:32 | 48.81239 | 2.06622 | 378 ft | 24 kts | 294° |
| 2026-05-07 18:32 | 48.81287 | 2.06465 | 379 ft | 15 kts | 284° |
| 2026-05-07 18:32 | 48.81326 | 2.06281 | 377 ft | 22 kts | 258° |
| 2026-05-07 18:32 | 48.81260 | 2.06340 | 377 ft | 19 kts | 112° |
| 2026-05-07 18:33 | 48.81193 | 2.06600 | 377 ft | 27 kts | 113° |
| 2026-05-07 18:33 | 48.81116 | 2.06835 | 376 ft | 18 kts | 116° |
| 2026-05-07 18:33 | 48.81107 | 2.06861 | 376 ft | 2 kts | 114° |
| 2026-05-07 18:33 | 48.81078 | 2.06931 | 376 ft | 13 kts | 125° |
| 2026-05-07 18:34 | 48.81033 | 2.06928 | 376 ft | 8 kts | 150° |
| 2026-05-07 18:34 | 48.81022 | 2.06946 | 376 ft | 0 kts | 130° |